Time,TemperatureF,DewpointF,PressureIn,WindDirection,WindDirectionDegrees,WindSpeedMPH,WindSpeedGustMPH,Humidity,HourlyPrecipIn,Conditions,Clouds,dailyrainin,SoftwareType,DateUTC
2013-07-20 00:02:00,80.0,72.0,29.78,ESE,108,1.0,6.0,77,0.00,,,0.00,,2013-07-20 05:02:00,
2013-07-20 00:12:00,80.0,72.0,29.78,ESE,108,1.0,6.0,77,0.00,,,0.00,,2013-07-20 05:12:00,
2013-07-20 00:22:00,80.0,72.0,29.78,ESE,114,1.0,6.0,77,0.00,,,0.00,,2013-07-20 05:22:00,
2013-07-20 00:32:00,80.0,72.0,29.78,ESE,116,1.0,6.0,77,0.00,,,0.00,,2013-07-20 05:32:00,
2013-07-20 00:52:00,80.0,72.0,29.78,SSE,161,3.0,9.0,77,0.00,,,0.00,,2013-07-20 05:52:00,
2013-07-20 01:01:00,80.0,72.0,29.78,SE,140,2.0,8.0,77,0.00,,,0.00,,2013-07-20 06:01:00,
2013-07-20 01:11:00,80.0,72.0,29.78,SE,140,2.0,8.0,77,0.00,,,0.00,,2013-07-20 06:11:00,
2013-07-20 01:21:00,79.0,71.0,29.77,ESE,121,2.0,9.0,77,0.00,,,0.00,,2013-07-20 06:21:00,
2013-07-20 01:32:00,79.0,71.0,29.77,SSE,160,2.0,9.0,77,0.00,,,0.00,,2013-07-20 06:32:00,
2013-07-20 01:43:00,79.0,71.0,29.77,SSE,160,2.0,9.0,77,0.00,,,0.00,,2013-07-20 06:43:00,
2013-07-20 01:52:00,79.0,71.0,29.77,SE,140,3.0,8.0,76,0.00,,,0.00,,2013-07-20 06:52:00,
2013-07-20 02:01:00,79.0,71.0,29.77,East,93,1.0,5.0,76,0.00,,,0.00,,2013-07-20 07:01:00,
2013-07-20 02:12:00,79.0,71.0,29.77,East,93,1.0,5.0,76,0.00,,,0.00,,2013-07-20 07:12:00,
2013-07-20 02:22:00,79.0,71.0,29.76,SE,136,2.0,6.0,76,0.00,,,0.00,,2013-07-20 07:22:00,
2013-07-20 02:33:00,79.0,71.0,29.76,East,100,0.0,6.0,76,0.00,,,0.00,,2013-07-20 07:33:00,
2013-07-20 02:44:00,79.0,71.0,29.76,East,100,0.0,6.0,76,0.00,,,0.00,,2013-07-20 07:44:00,
2013-07-20 02:54:00,79.0,71.0,29.75,SE,124,1.0,5.0,76,0.00,,,0.00,,2013-07-20 07:54:00,
2013-07-20 03:01:00,78.0,70.0,29.75,WSW,248,2.0,6.0,76,0.00,,,0.00,,2013-07-20 08:01:00,
2013-07-20 03:11:00,78.0,70.0,29.75,WSW,248,2.0,6.0,76,0.00,,,0.00,,2013-07-20 08:11:00,
2013-07-20 03:22:00,78.0,70.0,29.75,NW,309,1.0,10.0,76,0.00,,,0.00,,2013-07-20 08:22:00,
2013-07-20 03:32:00,78.0,70.0,29.75,SSE,148,0.0,5.0,77,0.00,,,0.00,,2013-07-20 08:32:00,
2013-07-20 03:44:00,78.0,70.0,29.75,SSE,148,0.0,5.0,77,0.00,,,0.00,,2013-07-20 08:44:00,
2013-07-20 03:52:00,78.0,70.0,29.74,SSE,159,3.0,10.0,77,0.00,,,0.00,,2013-07-20 08:52:00,
2013-07-20 04:02:00,78.0,70.0,29.74,SE,134,0.0,1.0,77,0.00,,,0.00,,2013-07-20 09:02:00,
2013-07-20 04:11:00,78.0,70.0,29.74,SE,134,0.0,1.0,77,0.00,,,0.00,,2013-07-20 09:11:00,
2013-07-20 04:22:00,77.0,70.0,29.73,East,99,1.0,6.0,78,0.00,,,0.00,,2013-07-20 09:22:00,
2013-07-20 04:33:00,77.0,70.0,29.73,ESE,118,0.0,5.0,79,0.00,,,0.00,,2013-07-20 09:33:00,
2013-07-20 04:43:00,77.0,70.0,29.73,ESE,118,0.0,5.0,79,0.00,,,0.00,,2013-07-20 09:43:00,
2013-07-20 04:53:00,77.0,70.0,29.74,SW,218,2.0,8.0,79,0.00,,,0.00,,2013-07-20 09:53:00,
2013-07-20 05:01:00,77.0,70.0,29.75,SSE,159,2.0,9.0,79,0.00,,,0.00,,2013-07-20 10:01:00,
2013-07-20 05:11:00,77.0,70.0,29.75,SSE,159,2.0,9.0,79,0.00,,,0.00,,2013-07-20 10:11:00,
2013-07-20 05:22:00,76.0,69.0,29.75,NNE,14,1.0,5.0,80,0.00,,,0.00,,2013-07-20 10:22:00,
2013-07-20 05:32:00,76.0,70.0,29.75,East,101,0.0,9.0,81,0.00,,,0.00,,2013-07-20 10:32:00,
2013-07-20 05:42:00,76.0,70.0,29.75,East,101,0.0,9.0,81,0.00,,,0.00,,2013-07-20 10:42:00,
2013-07-20 05:52:00,76.0,70.0,29.75,East,82,0.0,3.0,82,0.00,,,0.00,,2013-07-20 10:52:00,
2013-07-20 06:01:00,76.0,70.0,29.75,SSE,165,0.0,3.0,82,0.00,,,0.00,,2013-07-20 11:01:00,
2013-07-20 06:11:00,76.0,70.0,29.75,SSE,165,0.0,3.0,82,0.00,,,0.00,,2013-07-20 11:11:00,
2013-07-20 06:22:00,76.0,70.0,29.75,ENE,71,1.0,1.0,83,0.00,,,0.00,,2013-07-20 11:22:00,
2013-07-20 06:32:00,76.0,70.0,29.76,SSW,200,1.0,3.0,83,0.00,,,0.00,,2013-07-20 11:32:00,
2013-07-20 06:43:00,76.0,70.0,29.76,SSW,200,1.0,3.0,83,0.00,,,0.00,,2013-07-20 11:43:00,
2013-07-20 06:52:00,76.0,70.0,29.76,SW,235,1.0,6.0,82,0.00,,,0.00,,2013-07-20 11:52:00,
2013-07-20 07:01:00,76.0,70.0,29.76,East,87,1.0,5.0,82,0.00,,,0.00,,2013-07-20 12:01:00,
2013-07-20 07:11:00,76.0,70.0,29.76,East,87,1.0,5.0,82,0.00,,,0.00,,2013-07-20 12:11:00,
2013-07-20 07:22:00,76.0,70.0,29.77,SW,221,0.0,6.0,82,0.00,,,0.00,,2013-07-20 12:22:00,
2013-07-20 07:32:00,76.0,70.0,29.77,WSW,249,0.0,5.0,83,0.00,,,0.00,,2013-07-20 12:32:00,
2013-07-20 07:52:00,76.0,71.0,29.78,West,269,1.0,3.0,84,0.00,,,0.00,,2013-07-20 12:52:00,
2013-07-20 08:01:00,76.0,71.0,29.79,NE,46,2.0,8.0,85,0.20,,,0.20,,2013-07-20 13:01:00,
2013-07-20 08:11:00,76.0,71.0,29.79,NE,46,2.0,8.0,85,0.20,,,0.20,,2013-07-20 13:11:00,
2013-07-20 08:22:00,73.0,70.0,29.79,SSW,199,0.0,5.0,89,0.36,,,0.36,,2013-07-20 13:22:00,
2013-07-20 08:32:00,73.0,70.0,29.78,WSW,238,0.0,3.0,89,0.36,,,0.36,,2013-07-20 13:32:00,
2013-07-20 08:43:00,73.0,70.0,29.78,WSW,238,0.0,3.0,89,0.36,,,0.36,,2013-07-20 13:43:00,
2013-07-20 08:53:00,74.0,71.0,29.79,WSW,238,0.0,1.0,91,0.37,,,0.37,,2013-07-20 13:53:00,
2013-07-20 09:02:00,74.0,71.0,29.81,WSW,238,0.0,1.0,91,0.17,,,0.37,,2013-07-20 14:02:00,
2013-07-20 09:11:00,74.0,71.0,29.81,WSW,238,0.0,1.0,91,0.17,,,0.37,,2013-07-20 14:11:00,
2013-07-20 09:22:00,74.0,72.0,29.79,ESE,116,4.0,6.0,92,0.08,,,0.44,,2013-07-20 14:22:00,
2013-07-20 09:32:00,73.0,71.0,29.80,East,92,1.0,5.0,92,0.13,,,0.49,,2013-07-20 14:32:00,
2013-07-20 09:43:00,73.0,71.0,29.80,East,92,1.0,5.0,92,0.13,,,0.49,,2013-07-20 14:43:00,
2013-07-20 09:53:00,73.0,71.0,29.79,South,171,0.0,3.0,93,0.23,,,0.60,,2013-07-20 14:53:00,
2013-07-20 10:01:00,73.0,71.0,29.79,East,90,0.0,6.0,92,0.23,,,0.60,,2013-07-20 15:01:00,
2013-07-20 10:11:00,73.0,71.0,29.79,East,90,0.0,6.0,92,0.23,,,0.60,,2013-07-20 15:11:00,
2013-07-20 10:22:00,73.0,71.0,29.80,East,87,0.0,3.0,92,0.16,,,0.60,,2013-07-20 15:22:00,
2013-07-20 10:33:00,73.0,71.0,29.80,East,88,0.0,0.0,92,0.11,,,0.60,,2013-07-20 15:33:00,
2013-07-20 10:44:00,73.0,71.0,29.80,East,88,0.0,0.0,92,0.11,,,0.60,,2013-07-20 15:44:00,
2013-07-20 10:53:00,72.0,70.0,29.81,East,88,0.0,1.0,93,0.00,,,0.60,,2013-07-20 15:53:00,
2013-07-20 11:01:00,73.0,71.0,29.81,East,88,0.0,0.0,93,0.00,,,0.60,,2013-07-20 16:01:00,
2013-07-20 11:11:00,73.0,71.0,29.81,East,88,0.0,0.0,93,0.00,,,0.60,,2013-07-20 16:11:00,
2013-07-20 11:22:00,74.0,72.0,29.81,SSE,166,0.0,1.0,93,0.00,,,0.60,,2013-07-20 16:22:00,
2013-07-20 11:32:00,75.0,73.0,29.81,SSE,154,0.0,1.0,94,0.00,,,0.60,,2013-07-20 16:32:00,
2013-07-20 11:43:00,75.0,73.0,29.81,SSE,154,0.0,1.0,94,0.00,,,0.60,,2013-07-20 16:43:00,
2013-07-20 11:52:00,77.0,74.0,29.80,NW,314,3.0,5.0,92,0.00,,,0.60,,2013-07-20 16:52:00,
2013-07-20 12:02:00,77.0,73.0,29.80,NW,317,2.0,9.0,88,0.00,,,0.60,,2013-07-20 17:02:00,
2013-07-20 12:11:00,77.0,73.0,29.80,NW,317,2.0,9.0,88,0.00,,,0.60,,2013-07-20 17:11:00,
2013-07-20 12:22:00,80.0,75.0,29.80,NE,38,0.0,3.0,85,0.00,,,0.60,,2013-07-20 17:22:00,
2013-07-20 12:32:00,79.0,74.0,29.80,SSE,157,0.0,1.0,85,0.00,,,0.60,,2013-07-20 17:32:00,
2013-07-20 12:43:00,79.0,74.0,29.80,SSE,157,0.0,1.0,85,0.00,,,0.60,,2013-07-20 17:43:00,
2013-07-20 12:53:00,81.0,75.0,29.79,WSW,243,0.0,6.0,83,0.00,,,0.60,,2013-07-20 17:53:00,
2013-07-20 13:01:00,81.0,74.0,29.79,SE,140,1.0,5.0,80,0.00,,,0.60,,2013-07-20 18:01:00,
2013-07-20 13:11:00,81.0,74.0,29.79,SE,140,1.0,5.0,80,0.00,,,0.60,,2013-07-20 18:11:00,
2013-07-20 13:24:00,82.0,74.0,29.78,NW,309,0.0,5.0,78,0.00,,,0.60,,2013-07-20 18:24:00,
2013-07-20 13:35:00,83.0,75.0,29.78,NW,309,0.0,0.0,78,0.00,,,0.60,,2013-07-20 18:35:00,
2013-07-20 13:45:00,83.0,75.0,29.78,NW,309,0.0,0.0,78,0.00,,,0.60,,2013-07-20 18:45:00,
2013-07-20 13:59:00,84.0,74.0,29.77,NW,322,0.0,9.0,72,0.00,,,0.60,,2013-07-20 18:59:00,
2013-07-20 14:05:00,84.0,74.0,29.78,West,273,0.0,10.0,73,0.00,,,0.60,,2013-07-20 19:05:00,
2013-07-20 14:14:00,84.0,74.0,29.78,West,273,0.0,10.0,73,0.00,,,0.60,,2013-07-20 19:14:00,
2013-07-20 14:26:00,85.0,73.0,29.78,WSW,240,1.0,6.0,68,0.00,,,0.60,,2013-07-20 19:26:00,
2013-07-20 14:35:00,84.0,71.0,29.79,SW,223,0.0,5.0,66,0.00,,,0.60,,2013-07-20 19:35:00,
2013-07-20 14:43:00,84.0,71.0,29.79,SW,223,0.0,5.0,66,0.00,,,0.60,,2013-07-20 19:43:00,
2013-07-20 14:56:00,84.0,73.0,29.78,NNW,347,0.0,5.0,69,0.00,,,0.60,,2013-07-20 19:56:00,
2013-07-20 15:06:00,84.0,75.0,29.79,NNW,347,0.0,1.0,74,0.00,,,0.60,,2013-07-20 20:06:00,
2013-07-20 15:14:00,84.0,75.0,29.79,NNW,347,0.0,1.0,74,0.00,,,0.60,,2013-07-20 20:14:00,
2013-07-20 15:23:00,81.0,73.0,29.78,South,185,0.0,3.0,78,0.00,,,0.60,,2013-07-20 20:23:00,
2013-07-20 15:33:00,80.0,73.0,29.77,SE,138,0.0,5.0,80,0.00,,,0.60,,2013-07-20 20:33:00,
2013-07-20 15:45:00,80.0,73.0,29.77,SE,138,0.0,5.0,80,0.00,,,0.60,,2013-07-20 20:45:00,
2013-07-20 16:04:00,80.0,74.0,29.76,SE,138,0.0,1.0,81,0.00,,,0.60,,2013-07-20 21:04:00,
2013-07-20 16:14:00,80.0,74.0,29.76,SE,138,0.0,1.0,81,0.00,,,0.60,,2013-07-20 21:14:00,
2013-07-20 16:27:00,82.0,75.0,29.76,SSE,150,0.0,3.0,80,0.00,,,0.60,,2013-07-20 21:27:00,
2013-07-20 16:34:00,83.0,76.0,29.76,West,261,0.0,3.0,79,0.00,,,0.60,,2013-07-20 21:34:00,
2013-07-20 16:44:00,83.0,76.0,29.76,West,261,0.0,3.0,79,0.00,,,0.60,,2013-07-20 21:44:00,
2013-07-20 16:56:00,84.0,75.0,29.75,SSE,148,0.0,5.0,75,0.00,,,0.60,,2013-07-20 21:56:00,
2013-07-20 17:25:00,84.0,74.0,29.76,NNE,28,0.0,0.0,71,0.00,,,0.60,,2013-07-20 22:25:00,
2013-07-20 17:34:00,84.0,72.0,29.75,NNE,28,1.0,1.0,68,0.00,,,0.60,,2013-07-20 22:34:00,
2013-07-20 17:47:00,84.0,72.0,29.75,NNE,28,1.0,1.0,68,0.00,,,0.60,,2013-07-20 22:47:00,
2013-07-20 18:04:00,78.0,71.0,29.78,ESE,115,2.0,8.0,78,0.00,,,0.60,,2013-07-20 23:04:00,
2013-07-20 18:17:00,78.0,71.0,29.78,ESE,115,2.0,8.0,78,0.00,,,0.60,,2013-07-20 23:17:00,
2013-07-20 18:27:00,78.0,71.0,29.78,SE,131,1.0,8.0,80,0.00,,,0.60,,2013-07-20 23:27:00,
2013-07-20 18:36:00,78.0,71.0,29.78,SE,137,2.0,5.0,80,0.00,,,0.60,,2013-07-20 23:36:00,
2013-07-20 18:44:00,78.0,71.0,29.78,SE,137,2.0,5.0,80,0.00,,,0.60,,2013-07-20 23:44:00,
2013-07-20 18:56:00,78.0,72.0,29.78,SE,136,0.0,3.0,82,0.00,,,0.60,,2013-07-20 23:56:00,
2013-07-20 19:06:00,78.0,72.0,29.79,SE,136,0.0,3.0,82,0.00,,,0.60,,2013-07-21 00:06:00,
2013-07-20 19:23:00,78.0,73.0,29.80,SE,134,0.0,3.0,84,0.00,,,0.60,,2013-07-21 00:23:00,
2013-07-20 19:43:00,77.0,72.0,29.81,SE,134,1.0,3.0,84,0.00,,,0.60,,2013-07-21 00:43:00,
2013-07-20 19:56:00,77.0,72.0,29.82,SE,134,0.0,1.0,85,0.00,,,0.60,,2013-07-21 00:56:00,
2013-07-20 20:06:00,77.0,72.0,29.82,ESE,117,0.0,5.0,85,0.00,,,0.60,,2013-07-21 01:06:00,
2013-07-20 20:12:00,77.0,72.0,29.82,ESE,117,0.0,5.0,85,0.00,,,0.60,,2013-07-21 01:12:00,
2013-07-20 20:36:00,75.0,70.0,29.83,ESE,117,0.0,3.0,85,0.00,,,0.60,,2013-07-21 01:36:00,
2013-07-20 20:45:00,-999.0,-99.9,29.83,ESE,117,0.0,3.0,-999,-99.99,,,-99.99,,2013-07-21 01:45:00,
2013-07-20 20:59:00,75.0,71.0,29.83,SSE,157,0.0,6.0,86,0.00,,,0.60,,2013-07-21 01:59:00,
2013-07-20 21:05:00,74.0,70.0,29.84,SSE,157,0.0,1.0,86,0.00,,,0.60,,2013-07-21 02:05:00,
2013-07-20 21:16:00,74.0,70.0,29.84,SSE,157,0.0,1.0,86,0.00,,,0.60,,2013-07-21 02:16:00,
2013-07-20 21:26:00,73.0,68.0,29.84,ESE,122,2.0,5.0,85,0.00,,,0.60,,2013-07-21 02:26:00,
2013-07-20 21:36:00,72.0,67.0,29.85,ESE,122,0.0,1.0,85,0.00,,,0.60,,2013-07-21 02:36:00,
2013-07-20 21:44:00,72.0,67.0,29.85,ESE,122,0.0,1.0,85,0.00,,,0.60,,2013-07-21 02:44:00,
2013-07-20 21:58:00,71.0,66.0,29.85,ESE,122,0.0,1.0,85,0.00,,,0.60,,2013-07-21 02:58:00,
2013-07-20 22:04:00,71.0,67.0,29.84,SE,137,0.0,1.0,86,0.00,,,0.60,,2013-07-21 03:04:00,
2013-07-20 22:14:00,71.0,67.0,29.84,SE,137,0.0,1.0,86,0.00,,,0.60,,2013-07-21 03:14:00,
2013-07-20 22:25:00,70.0,66.0,29.85,SE,137,0.0,3.0,87,0.00,,,0.60,,2013-07-21 03:25:00,
2013-07-20 22:35:00,70.0,66.0,29.85,SE,137,0.0,3.0,87,0.00,,,0.60,,2013-07-21 03:35:00,
2013-07-20 22:44:00,70.0,66.0,29.85,SE,137,0.0,3.0,87,0.00,,,0.60,,2013-07-21 03:44:00,
2013-07-20 23:00:00,70.0,66.0,29.85,West,261,0.0,3.0,88,0.00,,,0.60,,2013-07-21 04:00:00,
2013-07-20 23:01:00,70.0,66.0,29.85,West,261,0.0,0.0,88,0.00,,,0.60,,2013-07-21 04:01:00,
2013-07-20 23:11:00,70.0,66.0,29.85,West,261,0.0,0.0,88,0.00,,,0.60,,2013-07-21 04:11:00,
2013-07-20 23:22:00,70.0,67.0,29.85,West,261,0.0,0.0,89,0.00,,,0.60,,2013-07-21 04:22:00,
2013-07-20 23:32:00,69.0,66.0,29.85,West,261,0.0,0.0,90,0.00,,,0.60,,2013-07-21 04:32:00,
2013-07-20 23:43:00,69.0,66.0,29.85,West,261,0.0,0.0,90,0.00,,,0.60,,2013-07-21 04:43:00,
2013-07-20 23:53:00,69.0,66.0,29.86,West,261,0.0,1.0,90,0.00,,,0.60,,2013-07-21 04:53:00,